sensor_id;sensor_type;location;lat;lon;timestamp;temperature;humidity
563;DHT22;266;49.514;8.294;2023-08-17T00:01:19;19.20;99.90
563;DHT22;266;49.514;8.294;2023-08-17T00:03:47;19.20;99.90
563;DHT22;266;49.514;8.294;2023-08-17T00:06:17;19.10;99.90
563;DHT22;266;49.514;8.294;2023-08-17T00:08:45;19.10;99.90
563;DHT22;266;49.514;8.294;2023-08-17T00:11:13;19.00;99.90
563;DHT22;266;49.514;8.294;2023-08-17T00:13:41;19.10;99.90
563;DHT22;266;49.514;8.294;2023-08-17T00:16:09;19.00;99.90
563;DHT22;266;49.514;8.294;2023-08-17T00:18:37;19.00;99.90
563;DHT22;266;49.514;8.294;2023-08-17T00:21:05;19.00;99.90
563;DHT22;266;49.514;8.294;2023-08-17T00:23:34;18.90;99.90
563;DHT22;266;49.514;8.294;2023-08-17T00:26:02;18.90;99.90
563;DHT22;266;49.514;8.294;2023-08-17T00:28:30;18.90;99.90
563;DHT22;266;49.514;8.294;2023-08-17T00:31:00;18.90;99.90
563;DHT22;266;49.514;8.294;2023-08-17T00:33:28;18.90;99.90
563;DHT22;266;49.514;8.294;2023-08-17T00:35:56;18.90;99.90
563;DHT22;266;49.514;8.294;2023-08-17T00:38:24;18.90;99.90
563;DHT22;266;49.514;8.294;2023-08-17T00:40:53;18.90;99.90
563;DHT22;266;49.514;8.294;2023-08-17T00:43:22;18.90;99.90
563;DHT22;266;49.514;8.294;2023-08-17T00:45:50;18.90;99.90
563;DHT22;266;49.514;8.294;2023-08-17T00:48:18;18.80;99.90
563;DHT22;266;49.514;8.294;2023-08-17T00:50:47;18.80;99.90
563;DHT22;266;49.514;8.294;2023-08-17T00:53:17;18.90;99.90
563;DHT22;266;49.514;8.294;2023-08-17T00:55:45;18.80;99.90
563;DHT22;266;49.514;8.294;2023-08-17T00:58:15;18.80;99.90
563;DHT22;266;49.514;8.294;2023-08-17T01:00:43;18.80;99.90
563;DHT22;266;49.514;8.294;2023-08-17T01:03:11;18.80;99.90
563;DHT22;266;49.514;8.294;2023-08-17T01:05:39;18.70;99.90
563;DHT22;266;49.514;8.294;2023-08-17T01:08:07;18.70;99.90
563;DHT22;266;49.514;8.294;2023-08-17T01:10:41;18.70;99.90
563;DHT22;266;49.514;8.294;2023-08-17T01:13:20;18.70;99.90
563;DHT22;266;49.514;8.294;2023-08-17T01:15:51;18.70;99.90
563;DHT22;266;49.514;8.294;2023-08-17T01:18:23;18.70;99.90
563;DHT22;266;49.514;8.294;2023-08-17T01:20:53;18.70;99.90
563;DHT22;266;49.514;8.294;2023-08-17T01:23:23;18.70;99.90
563;DHT22;266;49.514;8.294;2023-08-17T01:25:51;18.70;99.90
563;DHT22;266;49.514;8.294;2023-08-17T01:28:20;18.70;99.90
563;DHT22;266;49.514;8.294;2023-08-17T01:30:53;18.60;99.90
563;DHT22;266;49.514;8.294;2023-08-17T01:33:27;18.70;99.90
563;DHT22;266;49.514;8.294;2023-08-17T01:36:04;18.60;99.90
563;DHT22;266;49.514;8.294;2023-08-17T01:38:34;18.60;99.90
563;DHT22;266;49.514;8.294;2023-08-17T01:41:04;18.60;99.90
563;DHT22;266;49.514;8.294;2023-08-17T01:43:33;18.60;99.90
563;DHT22;266;49.514;8.294;2023-08-17T01:46:01;18.50;99.90
563;DHT22;266;49.514;8.294;2023-08-17T01:48:29;18.50;99.90
563;DHT22;266;49.514;8.294;2023-08-17T01:50:57;18.50;99.90
563;DHT22;266;49.514;8.294;2023-08-17T01:53:25;18.50;99.90
563;DHT22;266;49.514;8.294;2023-08-17T01:55:55;18.50;99.90
563;DHT22;266;49.514;8.294;2023-08-17T01:58:22;18.50;99.90
563;DHT22;266;49.514;8.294;2023-08-17T02:00:50;18.50;99.90
563;DHT22;266;49.514;8.294;2023-08-17T02:03:18;18.50;99.90
563;DHT22;266;49.514;8.294;2023-08-17T02:05:47;18.50;99.90
563;DHT22;266;49.514;8.294;2023-08-17T02:08:15;18.50;99.90
563;DHT22;266;49.514;8.294;2023-08-17T02:10:42;18.50;99.90
563;DHT22;266;49.514;8.294;2023-08-17T02:13:12;18.50;99.90
563;DHT22;266;49.514;8.294;2023-08-17T02:15:44;18.50;99.90
563;DHT22;266;49.514;8.294;2023-08-17T02:18:12;18.40;99.90
563;DHT22;266;49.514;8.294;2023-08-17T02:20:40;18.50;99.90
563;DHT22;266;49.514;8.294;2023-08-17T02:23:08;18.40;99.90
563;DHT22;266;49.514;8.294;2023-08-17T02:25:38;18.40;99.90
563;DHT22;266;49.514;8.294;2023-08-17T02:28:06;18.40;99.90
563;DHT22;266;49.514;8.294;2023-08-17T02:30:35;18.40;99.90
563;DHT22;266;49.514;8.294;2023-08-17T02:33:04;18.30;99.90
563;DHT22;266;49.514;8.294;2023-08-17T02:35:32;18.30;99.90
563;DHT22;266;49.514;8.294;2023-08-17T02:38:00;18.40;99.90
563;DHT22;266;49.514;8.294;2023-08-17T02:40:28;18.30;99.90
563;DHT22;266;49.514;8.294;2023-08-17T02:42:56;18.30;99.90
563;DHT22;266;49.514;8.294;2023-08-17T02:45:24;18.30;99.90
563;DHT22;266;49.514;8.294;2023-08-17T02:47:54;18.30;99.90
563;DHT22;266;49.514;8.294;2023-08-17T02:50:22;18.30;99.90
563;DHT22;266;49.514;8.294;2023-08-17T02:52:50;18.30;99.90
563;DHT22;266;49.514;8.294;2023-08-17T02:55:18;18.30;99.90
563;DHT22;266;49.514;8.294;2023-08-17T02:57:46;18.30;99.90
563;DHT22;266;49.514;8.294;2023-08-17T03:00:14;18.30;99.90
563;DHT22;266;49.514;8.294;2023-08-17T03:02:42;18.20;99.90
563;DHT22;266;49.514;8.294;2023-08-17T03:05:11;18.20;99.90
563;DHT22;266;49.514;8.294;2023-08-17T03:07:39;18.20;99.90
563;DHT22;266;49.514;8.294;2023-08-17T03:10:07;18.20;99.90
563;DHT22;266;49.514;8.294;2023-08-17T03:12:35;18.20;99.90
563;DHT22;266;49.514;8.294;2023-08-17T03:15:05;18.20;99.90
563;DHT22;266;49.514;8.294;2023-08-17T03:17:34;18.20;99.90
563;DHT22;266;49.514;8.294;2023-08-17T03:20:03;18.20;99.90
563;DHT22;266;49.514;8.294;2023-08-17T03:22:34;18.20;99.90
563;DHT22;266;49.514;8.294;2023-08-17T03:25:03;18.10;99.90
563;DHT22;266;49.514;8.294;2023-08-17T03:27:31;18.10;99.90
563;DHT22;266;49.514;8.294;2023-08-17T03:29:59;18.10;99.90
563;DHT22;266;49.514;8.294;2023-08-17T03:32:27;18.00;99.90
563;DHT22;266;49.514;8.294;2023-08-17T03:34:55;18.10;99.90
563;DHT22;266;49.514;8.294;2023-08-17T03:37:23;18.10;99.90
563;DHT22;266;49.514;8.294;2023-08-17T03:39:52;18.00;99.90
563;DHT22;266;49.514;8.294;2023-08-17T03:42:20;18.00;99.90
563;DHT22;266;49.514;8.294;2023-08-17T03:44:48;18.00;99.90
563;DHT22;266;49.514;8.294;2023-08-17T03:47:17;18.00;99.90
563;DHT22;266;49.514;8.294;2023-08-17T03:49:45;18.00;99.90
563;DHT22;266;49.514;8.294;2023-08-17T03:52:13;18.00;99.90
563;DHT22;266;49.514;8.294;2023-08-17T03:54:41;18.00;99.90
563;DHT22;266;49.514;8.294;2023-08-17T03:57:11;17.90;99.90
563;DHT22;266;49.514;8.294;2023-08-17T03:59:40;17.90;99.90
563;DHT22;266;49.514;8.294;2023-08-17T04:02:08;17.90;99.90
563;DHT22;266;49.514;8.294;2023-08-17T04:04:37;17.90;99.90
563;DHT22;266;49.514;8.294;2023-08-17T04:07:05;17.90;99.90
563;DHT22;266;49.514;8.294;2023-08-17T04:09:34;17.90;99.90
563;DHT22;266;49.514;8.294;2023-08-17T04:12:02;17.90;99.90
563;DHT22;266;49.514;8.294;2023-08-17T04:14:33;17.90;99.90
563;DHT22;266;49.514;8.294;2023-08-17T04:17:00;17.90;99.90
563;DHT22;266;49.514;8.294;2023-08-17T04:19:28;17.90;99.90
563;DHT22;266;49.514;8.294;2023-08-17T04:21:56;17.90;99.90
563;DHT22;266;49.514;8.294;2023-08-17T04:24:25;17.90;99.90
563;DHT22;266;49.514;8.294;2023-08-17T04:26:53;17.90;99.90
563;DHT22;266;49.514;8.294;2023-08-17T04:29:21;17.90;99.90
563;DHT22;266;49.514;8.294;2023-08-17T04:31:50;17.90;99.90
563;DHT22;266;49.514;8.294;2023-08-17T04:34:18;17.90;99.90
563;DHT22;266;49.514;8.294;2023-08-17T04:36:46;18.00;99.90
563;DHT22;266;49.514;8.294;2023-08-17T04:39:14;18.00;99.90
563;DHT22;266;49.514;8.294;2023-08-17T04:41:42;18.00;99.90
563;DHT22;266;49.514;8.294;2023-08-17T04:44:10;18.00;99.90
563;DHT22;266;49.514;8.294;2023-08-17T04:46:38;18.00;99.90
563;DHT22;266;49.514;8.294;2023-08-17T04:49:07;18.00;99.90
563;DHT22;266;49.514;8.294;2023-08-17T04:51:35;18.00;99.90
563;DHT22;266;49.514;8.294;2023-08-17T04:54:04;18.00;99.90
563;DHT22;266;49.514;8.294;2023-08-17T04:56:32;18.00;99.90
563;DHT22;266;49.514;8.294;2023-08-17T04:58:59;18.00;99.90
563;DHT22;266;49.514;8.294;2023-08-17T05:01:27;18.00;99.90
563;DHT22;266;49.514;8.294;2023-08-17T05:03:55;18.10;99.90
563;DHT22;266;49.514;8.294;2023-08-17T05:06:27;18.10;99.90
563;DHT22;266;49.514;8.294;2023-08-17T05:08:57;18.10;99.90
563;DHT22;266;49.514;8.294;2023-08-17T05:11:25;18.10;99.90
563;DHT22;266;49.514;8.294;2023-08-17T05:13:53;18.10;99.90
563;DHT22;266;49.514;8.294;2023-08-17T05:16:22;18.10;99.90
563;DHT22;266;49.514;8.294;2023-08-17T05:18:50;18.20;99.90
563;DHT22;266;49.514;8.294;2023-08-17T05:21:18;18.20;99.90
563;DHT22;266;49.514;8.294;2023-08-17T05:23:47;18.20;99.90
563;DHT22;266;49.514;8.294;2023-08-17T05:26:15;18.30;99.90
563;DHT22;266;49.514;8.294;2023-08-17T05:28:43;18.30;99.90
563;DHT22;266;49.514;8.294;2023-08-17T05:31:11;18.30;99.90
563;DHT22;266;49.514;8.294;2023-08-17T05:33:39;18.30;99.90
563;DHT22;266;49.514;8.294;2023-08-17T05:36:08;18.30;99.90
563;DHT22;266;49.514;8.294;2023-08-17T05:38:36;18.30;99.90
563;DHT22;266;49.514;8.294;2023-08-17T05:41:05;18.30;99.90
563;DHT22;266;49.514;8.294;2023-08-17T05:43:33;18.40;99.90
563;DHT22;266;49.514;8.294;2023-08-17T05:46:01;18.40;99.90
563;DHT22;266;49.514;8.294;2023-08-17T05:48:29;18.40;99.90
563;DHT22;266;49.514;8.294;2023-08-17T05:50:57;18.40;99.90
563;DHT22;266;49.514;8.294;2023-08-17T05:53:25;18.40;99.90
563;DHT22;266;49.514;8.294;2023-08-17T05:55:53;18.50;99.90
563;DHT22;266;49.514;8.294;2023-08-17T05:58:23;18.50;99.90
563;DHT22;266;49.514;8.294;2023-08-17T06:00:51;18.60;99.90
563;DHT22;266;49.514;8.294;2023-08-17T06:03:19;18.60;99.90
563;DHT22;266;49.514;8.294;2023-08-17T06:05:47;18.60;99.90
563;DHT22;266;49.514;8.294;2023-08-17T06:08:15;18.60;99.90
563;DHT22;266;49.514;8.294;2023-08-17T06:10:43;18.70;99.90
563;DHT22;266;49.514;8.294;2023-08-17T06:13:11;18.70;99.90
563;DHT22;266;49.514;8.294;2023-08-17T06:15:40;18.70;99.90
563;DHT22;266;49.514;8.294;2023-08-17T06:18:08;18.70;99.90
563;DHT22;266;49.514;8.294;2023-08-17T06:20:36;18.70;99.90
563;DHT22;266;49.514;8.294;2023-08-17T06:23:04;18.80;99.90
563;DHT22;266;49.514;8.294;2023-08-17T06:25:32;18.80;99.90
563;DHT22;266;49.514;8.294;2023-08-17T06:28:00;18.80;99.90
563;DHT22;266;49.514;8.294;2023-08-17T06:30:29;18.80;99.90
563;DHT22;266;49.514;8.294;2023-08-17T06:32:58;18.90;99.90
563;DHT22;266;49.514;8.294;2023-08-17T06:35:26;19.00;99.90
563;DHT22;266;49.514;8.294;2023-08-17T06:37:54;19.00;99.90
563;DHT22;266;49.514;8.294;2023-08-17T06:40:24;19.20;99.90
563;DHT22;266;49.514;8.294;2023-08-17T06:42:52;19.20;99.90
563;DHT22;266;49.514;8.294;2023-08-17T06:45:21;19.20;99.90
563;DHT22;266;49.514;8.294;2023-08-17T06:47:49;19.20;99.90
563;DHT22;266;49.514;8.294;2023-08-17T06:50:19;19.30;99.90
563;DHT22;266;49.514;8.294;2023-08-17T06:52:47;19.30;99.90
563;DHT22;266;49.514;8.294;2023-08-17T06:55:14;19.30;99.90
563;DHT22;266;49.514;8.294;2023-08-17T06:57:43;19.40;99.90
563;DHT22;266;49.514;8.294;2023-08-17T07:00:12;19.40;99.90
563;DHT22;266;49.514;8.294;2023-08-17T07:02:40;19.50;99.90
563;DHT22;266;49.514;8.294;2023-08-17T07:05:22;19.50;99.90
563;DHT22;266;49.514;8.294;2023-08-17T07:07:50;19.60;99.90
563;DHT22;266;49.514;8.294;2023-08-17T07:10:19;19.60;99.90
563;DHT22;266;49.514;8.294;2023-08-17T07:12:47;19.60;99.90
563;DHT22;266;49.514;8.294;2023-08-17T07:15:15;19.70;99.90
563;DHT22;266;49.514;8.294;2023-08-17T07:17:43;19.70;99.90
563;DHT22;266;49.514;8.294;2023-08-17T07:20:11;19.80;99.90
563;DHT22;266;49.514;8.294;2023-08-17T07:22:44;19.80;99.90
563;DHT22;266;49.514;8.294;2023-08-17T07:25:12;19.90;99.90
563;DHT22;266;49.514;8.294;2023-08-17T07:27:40;20.00;99.90
563;DHT22;266;49.514;8.294;2023-08-17T07:30:09;20.00;99.90
563;DHT22;266;49.514;8.294;2023-08-17T07:32:37;20.10;99.90
563;DHT22;266;49.514;8.294;2023-08-17T07:35:06;20.10;99.90
563;DHT22;266;49.514;8.294;2023-08-17T07:37:35;20.20;99.90
563;DHT22;266;49.514;8.294;2023-08-17T07:40:06;20.30;99.90
563;DHT22;266;49.514;8.294;2023-08-17T07:42:35;20.30;99.90
563;DHT22;266;49.514;8.294;2023-08-17T07:45:04;20.30;99.90
563;DHT22;266;49.514;8.294;2023-08-17T07:47:34;20.30;99.90
563;DHT22;266;49.514;8.294;2023-08-17T07:50:03;20.40;99.90
563;DHT22;266;49.514;8.294;2023-08-17T07:52:31;20.40;99.90
563;DHT22;266;49.514;8.294;2023-08-17T07:54:59;20.50;99.90
563;DHT22;266;49.514;8.294;2023-08-17T07:57:28;20.60;99.90
563;DHT22;266;49.514;8.294;2023-08-17T07:59:56;20.60;99.90
563;DHT22;266;49.514;8.294;2023-08-17T08:02:24;20.50;99.90
563;DHT22;266;49.514;8.294;2023-08-17T08:04:52;20.60;99.90
563;DHT22;266;49.514;8.294;2023-08-17T08:07:20;20.60;99.90
563;DHT22;266;49.514;8.294;2023-08-17T08:09:48;20.60;99.90
563;DHT22;266;49.514;8.294;2023-08-17T08:12:16;20.60;99.90
563;DHT22;266;49.514;8.294;2023-08-17T08:14:46;20.60;99.90
563;DHT22;266;49.514;8.294;2023-08-17T08:17:15;20.70;99.90
563;DHT22;266;49.514;8.294;2023-08-17T08:19:43;20.70;99.90
563;DHT22;266;49.514;8.294;2023-08-17T08:22:11;20.80;99.90
563;DHT22;266;49.514;8.294;2023-08-17T08:24:39;20.90;99.90
563;DHT22;266;49.514;8.294;2023-08-17T08:27:10;21.00;99.90
563;DHT22;266;49.514;8.294;2023-08-17T08:29:38;21.00;99.90
563;DHT22;266;49.514;8.294;2023-08-17T08:32:08;21.10;99.90
563;DHT22;266;49.514;8.294;2023-08-17T08:34:36;21.10;99.90
563;DHT22;266;49.514;8.294;2023-08-17T08:37:04;21.20;99.90
563;DHT22;266;49.514;8.294;2023-08-17T08:39:32;21.30;99.90
563;DHT22;266;49.514;8.294;2023-08-17T08:42:00;21.30;99.90
563;DHT22;266;49.514;8.294;2023-08-17T08:44:28;21.40;99.90
563;DHT22;266;49.514;8.294;2023-08-17T08:46:57;21.40;99.90
563;DHT22;266;49.514;8.294;2023-08-17T08:49:27;21.50;99.90
563;DHT22;266;49.514;8.294;2023-08-17T08:51:57;21.60;99.90
563;DHT22;266;49.514;8.294;2023-08-17T08:54:28;21.60;99.90
563;DHT22;266;49.514;8.294;2023-08-17T08:57:01;21.70;99.90
563;DHT22;266;49.514;8.294;2023-08-17T08:59:31;21.80;99.90
563;DHT22;266;49.514;8.294;2023-08-17T09:01:59;22.00;99.90
563;DHT22;266;49.514;8.294;2023-08-17T09:04:29;22.10;99.90
563;DHT22;266;49.514;8.294;2023-08-17T09:06:57;22.20;99.90
563;DHT22;266;49.514;8.294;2023-08-17T09:09:25;22.20;99.90
563;DHT22;266;49.514;8.294;2023-08-17T09:11:56;22.20;99.90
563;DHT22;266;49.514;8.294;2023-08-17T09:14:24;22.30;99.90
563;DHT22;266;49.514;8.294;2023-08-17T09:16:52;22.50;99.90
563;DHT22;266;49.514;8.294;2023-08-17T09:19:20;22.70;99.90
563;DHT22;266;49.514;8.294;2023-08-17T09:21:49;22.70;99.90
563;DHT22;266;49.514;8.294;2023-08-17T09:24:17;22.90;99.90
563;DHT22;266;49.514;8.294;2023-08-17T09:26:45;23.00;99.90
563;DHT22;266;49.514;8.294;2023-08-17T09:29:17;23.30;99.90
563;DHT22;266;49.514;8.294;2023-08-17T09:31:46;23.60;99.90
563;DHT22;266;49.514;8.294;2023-08-17T09:34:14;23.70;99.90
563;DHT22;266;49.514;8.294;2023-08-17T09:36:45;23.90;99.90
563;DHT22;266;49.514;8.294;2023-08-17T09:39:17;24.20;99.90
563;DHT22;266;49.514;8.294;2023-08-17T09:41:45;24.30;99.90
563;DHT22;266;49.514;8.294;2023-08-17T09:44:13;24.30;99.90
563;DHT22;266;49.514;8.294;2023-08-17T09:46:43;24.50;99.90
563;DHT22;266;49.514;8.294;2023-08-17T09:49:11;24.60;99.90
563;DHT22;266;49.514;8.294;2023-08-17T09:51:42;24.50;99.90
563;DHT22;266;49.514;8.294;2023-08-17T09:54:20;24.40;99.90
563;DHT22;266;49.514;8.294;2023-08-17T09:56:50;24.70;99.90
563;DHT22;266;49.514;8.294;2023-08-17T09:59:18;25.00;99.90
563;DHT22;266;49.514;8.294;2023-08-17T10:01:49;25.50;99.90
563;DHT22;266;49.514;8.294;2023-08-17T10:04:22;25.90;99.90
563;DHT22;266;49.514;8.294;2023-08-17T10:06:58;26.00;99.90
563;DHT22;266;49.514;8.294;2023-08-17T10:09:32;26.10;99.90
563;DHT22;266;49.514;8.294;2023-08-17T10:12:10;26.20;99.90
563;DHT22;266;49.514;8.294;2023-08-17T10:14:42;26.30;99.90
563;DHT22;266;49.514;8.294;2023-08-17T10:17:17;26.50;99.90
563;DHT22;266;49.514;8.294;2023-08-17T10:19:50;26.80;99.90
563;DHT22;266;49.514;8.294;2023-08-17T10:22:26;27.00;99.90
563;DHT22;266;49.514;8.294;2023-08-17T10:24:58;27.20;99.90
563;DHT22;266;49.514;8.294;2023-08-17T10:27:27;27.30;99.90
563;DHT22;266;49.514;8.294;2023-08-17T10:29:56;27.20;99.90
563;DHT22;266;49.514;8.294;2023-08-17T10:32:25;27.40;99.90
563;DHT22;266;49.514;8.294;2023-08-17T10:34:54;27.70;99.90
563;DHT22;266;49.514;8.294;2023-08-17T10:37:23;27.90;99.90
563;DHT22;266;49.514;8.294;2023-08-17T10:39:51;27.80;99.90
563;DHT22;266;49.514;8.294;2023-08-17T10:42:32;27.90;99.90
563;DHT22;266;49.514;8.294;2023-08-17T10:45:00;27.70;99.90
563;DHT22;266;49.514;8.294;2023-08-17T10:47:31;27.70;99.90
563;DHT22;266;49.514;8.294;2023-08-17T10:50:04;27.70;99.90
563;DHT22;266;49.514;8.294;2023-08-17T10:52:34;27.70;99.90
563;DHT22;266;49.514;8.294;2023-08-17T10:55:05;27.80;99.90
563;DHT22;266;49.514;8.294;2023-08-17T10:57:36;27.90;99.90
563;DHT22;266;49.514;8.294;2023-08-17T11:00:13;28.00;99.90
563;DHT22;266;49.514;8.294;2023-08-17T11:02:52;28.10;99.90
563;DHT22;266;49.514;8.294;2023-08-17T11:05:39;28.10;99.90
563;DHT22;266;49.514;8.294;2023-08-17T11:08:08;28.30;99.90
563;DHT22;266;49.514;8.294;2023-08-17T11:10:37;28.40;99.90
563;DHT22;266;49.514;8.294;2023-08-17T11:13:06;28.40;99.90
563;DHT22;266;49.514;8.294;2023-08-17T11:15:38;28.50;99.90
563;DHT22;266;49.514;8.294;2023-08-17T11:18:09;28.70;99.90
563;DHT22;266;49.514;8.294;2023-08-17T11:20:39;28.90;99.90
563;DHT22;266;49.514;8.294;2023-08-17T11:23:08;29.00;99.90
563;DHT22;266;49.514;8.294;2023-08-17T11:25:37;29.30;99.90
563;DHT22;266;49.514;8.294;2023-08-17T11:28:08;29.40;99.90
563;DHT22;266;49.514;8.294;2023-08-17T11:30:36;29.60;99.90
563;DHT22;266;49.514;8.294;2023-08-17T11:33:06;29.80;99.90
563;DHT22;266;49.514;8.294;2023-08-17T11:35:34;30.20;99.90
563;DHT22;266;49.514;8.294;2023-08-17T11:38:03;30.40;99.90
563;DHT22;266;49.514;8.294;2023-08-17T11:40:35;30.40;99.90
563;DHT22;266;49.514;8.294;2023-08-17T11:43:04;30.30;99.90
563;DHT22;266;49.514;8.294;2023-08-17T11:45:33;30.10;99.90
563;DHT22;266;49.514;8.294;2023-08-17T11:48:01;29.50;99.90
563;DHT22;266;49.514;8.294;2023-08-17T11:50:30;29.00;99.90
563;DHT22;266;49.514;8.294;2023-08-17T11:52:59;28.50;99.90
563;DHT22;266;49.514;8.294;2023-08-17T11:55:27;28.30;99.90
563;DHT22;266;49.514;8.294;2023-08-17T11:57:56;28.10;99.90
563;DHT22;266;49.514;8.294;2023-08-17T12:00:24;28.60;99.90
563;DHT22;266;49.514;8.294;2023-08-17T12:02:53;29.10;99.90
563;DHT22;266;49.514;8.294;2023-08-17T12:05:22;29.60;99.90
563;DHT22;266;49.514;8.294;2023-08-17T12:07:53;30.00;99.90
563;DHT22;266;49.514;8.294;2023-08-17T12:10:21;30.40;99.90
563;DHT22;266;49.514;8.294;2023-08-17T12:12:50;30.50;99.90
563;DHT22;266;49.514;8.294;2023-08-17T12:15:19;30.90;99.90
563;DHT22;266;49.514;8.294;2023-08-17T12:17:47;31.40;99.90
563;DHT22;266;49.514;8.294;2023-08-17T12:20:18;31.60;99.90
563;DHT22;266;49.514;8.294;2023-08-17T12:22:46;31.80;99.90
563;DHT22;266;49.514;8.294;2023-08-17T12:25:15;31.60;99.90
563;DHT22;266;49.514;8.294;2023-08-17T12:27:43;31.10;99.90
563;DHT22;266;49.514;8.294;2023-08-17T12:30:26;30.70;99.90
563;DHT22;266;49.514;8.294;2023-08-17T12:32:54;30.10;99.90
563;DHT22;266;49.514;8.294;2023-08-17T12:35:26;29.70;99.90
563;DHT22;266;49.514;8.294;2023-08-17T12:37:54;29.40;99.90
563;DHT22;266;49.514;8.294;2023-08-17T12:40:24;29.00;99.90
563;DHT22;266;49.514;8.294;2023-08-17T12:42:52;28.80;99.90
563;DHT22;266;49.514;8.294;2023-08-17T12:45:20;28.40;99.90
563;DHT22;266;49.514;8.294;2023-08-17T12:47:54;28.10;99.90
563;DHT22;266;49.514;8.294;2023-08-17T12:50:22;28.00;99.90
563;DHT22;266;49.514;8.294;2023-08-17T12:52:51;27.90;99.90
563;DHT22;266;49.514;8.294;2023-08-17T12:55:19;27.60;99.90
563;DHT22;266;49.514;8.294;2023-08-17T12:57:47;27.40;99.90
563;DHT22;266;49.514;8.294;2023-08-17T13:00:16;27.20;99.90
563;DHT22;266;49.514;8.294;2023-08-17T13:02:44;27.10;99.90
563;DHT22;266;49.514;8.294;2023-08-17T13:05:13;27.00;99.90
563;DHT22;266;49.514;8.294;2023-08-17T13:07:41;27.00;99.90
563;DHT22;266;49.514;8.294;2023-08-17T13:10:11;27.00;99.90
563;DHT22;266;49.514;8.294;2023-08-17T13:12:39;27.10;99.90
563;DHT22;266;49.514;8.294;2023-08-17T13:15:07;27.20;99.90
563;DHT22;266;49.514;8.294;2023-08-17T13:17:35;27.00;99.90
563;DHT22;266;49.514;8.294;2023-08-17T13:20:04;26.80;99.90
563;DHT22;266;49.514;8.294;2023-08-17T13:22:33;26.70;99.90
563;DHT22;266;49.514;8.294;2023-08-17T13:25:01;26.60;99.90
563;DHT22;266;49.514;8.294;2023-08-17T13:27:30;26.70;99.90
563;DHT22;266;49.514;8.294;2023-08-17T13:29:58;26.70;99.90
563;DHT22;266;49.514;8.294;2023-08-17T13:32:27;26.60;99.90
563;DHT22;266;49.514;8.294;2023-08-17T13:34:56;26.50;99.90
563;DHT22;266;49.514;8.294;2023-08-17T13:37:24;26.50;99.90
563;DHT22;266;49.514;8.294;2023-08-17T13:39:54;26.50;99.90
563;DHT22;266;49.514;8.294;2023-08-17T13:42:22;26.60;99.90
563;DHT22;266;49.514;8.294;2023-08-17T13:44:52;26.70;99.90
563;DHT22;266;49.514;8.294;2023-08-17T13:47:20;26.80;99.90
563;DHT22;266;49.514;8.294;2023-08-17T13:49:48;26.90;99.90
563;DHT22;266;49.514;8.294;2023-08-17T13:52:16;27.50;99.90
563;DHT22;266;49.514;8.294;2023-08-17T13:54:44;28.30;99.90
563;DHT22;266;49.514;8.294;2023-08-17T13:57:13;29.00;99.90
563;DHT22;266;49.514;8.294;2023-08-17T13:59:41;29.40;99.90
563;DHT22;266;49.514;8.294;2023-08-17T14:02:10;29.70;99.90
563;DHT22;266;49.514;8.294;2023-08-17T14:04:38;30.10;99.90
563;DHT22;266;49.514;8.294;2023-08-17T14:07:06;30.30;99.90
563;DHT22;266;49.514;8.294;2023-08-17T14:09:34;30.20;99.90
563;DHT22;266;49.514;8.294;2023-08-17T14:12:02;30.20;99.90
563;DHT22;266;49.514;8.294;2023-08-17T14:14:31;30.10;99.90
563;DHT22;266;49.514;8.294;2023-08-17T14:16:59;29.90;99.90
563;DHT22;266;49.514;8.294;2023-08-17T14:19:30;29.90;99.90
563;DHT22;266;49.514;8.294;2023-08-17T14:21:58;29.90;99.90
563;DHT22;266;49.514;8.294;2023-08-17T14:24:27;30.00;99.90
563;DHT22;266;49.514;8.294;2023-08-17T14:26:55;30.30;99.90
563;DHT22;266;49.514;8.294;2023-08-17T14:29:24;30.60;99.90
563;DHT22;266;49.514;8.294;2023-08-17T14:31:52;30.40;99.90
563;DHT22;266;49.514;8.294;2023-08-17T14:34:22;30.70;99.90
563;DHT22;266;49.514;8.294;2023-08-17T14:36:51;30.90;99.90
563;DHT22;266;49.514;8.294;2023-08-17T14:39:19;30.80;99.90
563;DHT22;266;49.514;8.294;2023-08-17T14:41:47;31.00;99.90
563;DHT22;266;49.514;8.294;2023-08-17T14:44:15;30.80;99.90
563;DHT22;266;49.514;8.294;2023-08-17T14:46:44;30.70;99.90
563;DHT22;266;49.514;8.294;2023-08-17T14:49:12;30.40;99.90
563;DHT22;266;49.514;8.294;2023-08-17T14:51:41;30.20;99.90
563;DHT22;266;49.514;8.294;2023-08-17T14:54:10;29.80;99.90
563;DHT22;266;49.514;8.294;2023-08-17T14:56:38;29.40;99.90
563;DHT22;266;49.514;8.294;2023-08-17T14:59:07;29.20;99.90
563;DHT22;266;49.514;8.294;2023-08-17T15:01:36;29.10;99.90
563;DHT22;266;49.514;8.294;2023-08-17T15:04:04;29.10;99.90
563;DHT22;266;49.514;8.294;2023-08-17T15:06:33;29.30;99.90
563;DHT22;266;49.514;8.294;2023-08-17T15:09:07;29.40;99.90
563;DHT22;266;49.514;8.294;2023-08-17T15:11:37;29.60;99.90
563;DHT22;266;49.514;8.294;2023-08-17T15:14:05;29.80;99.90
563;DHT22;266;49.514;8.294;2023-08-17T15:16:33;30.00;99.90
563;DHT22;266;49.514;8.294;2023-08-17T15:19:01;30.10;99.90
563;DHT22;266;49.514;8.294;2023-08-17T15:21:29;30.30;99.90
563;DHT22;266;49.514;8.294;2023-08-17T15:23:57;30.30;99.90
563;DHT22;266;49.514;8.294;2023-08-17T15:26:27;30.50;99.90
563;DHT22;266;49.514;8.294;2023-08-17T15:28:56;30.70;99.90
563;DHT22;266;49.514;8.294;2023-08-17T15:31:25;31.00;99.90
563;DHT22;266;49.514;8.294;2023-08-17T15:33:53;31.10;99.90
563;DHT22;266;49.514;8.294;2023-08-17T15:36:21;31.20;99.90
563;DHT22;266;49.514;8.294;2023-08-17T15:38:50;31.30;99.90
563;DHT22;266;49.514;8.294;2023-08-17T15:41:18;31.30;99.90
563;DHT22;266;49.514;8.294;2023-08-17T15:43:46;31.30;99.90
563;DHT22;266;49.514;8.294;2023-08-17T15:46:16;31.60;99.90
563;DHT22;266;49.514;8.294;2023-08-17T15:48:44;31.60;99.90
563;DHT22;266;49.514;8.294;2023-08-17T15:51:12;31.50;99.90
563;DHT22;266;49.514;8.294;2023-08-17T15:53:39;31.50;99.90
563;DHT22;266;49.514;8.294;2023-08-17T15:56:10;31.40;99.90
563;DHT22;266;49.514;8.294;2023-08-17T15:58:38;31.50;99.90
563;DHT22;266;49.514;8.294;2023-08-17T16:01:06;31.30;99.90
563;DHT22;266;49.514;8.294;2023-08-17T16:03:35;31.40;99.90
563;DHT22;266;49.514;8.294;2023-08-17T16:06:04;31.40;99.90
563;DHT22;266;49.514;8.294;2023-08-17T16:08:32;31.20;99.90
563;DHT22;266;49.514;8.294;2023-08-17T16:11:15;31.20;99.90
563;DHT22;266;49.514;8.294;2023-08-17T16:13:44;31.10;99.90
563;DHT22;266;49.514;8.294;2023-08-17T16:16:13;31.10;99.90
563;DHT22;266;49.514;8.294;2023-08-17T16:18:42;30.90;99.90
563;DHT22;266;49.514;8.294;2023-08-17T16:21:10;30.70;99.90
563;DHT22;266;49.514;8.294;2023-08-17T16:23:41;30.70;99.90
563;DHT22;266;49.514;8.294;2023-08-17T16:26:10;30.90;99.90
563;DHT22;266;49.514;8.294;2023-08-17T16:28:37;30.70;99.90
563;DHT22;266;49.514;8.294;2023-08-17T16:31:05;30.60;99.90
563;DHT22;266;49.514;8.294;2023-08-17T16:33:33;30.70;99.90
563;DHT22;266;49.514;8.294;2023-08-17T16:36:03;30.70;99.90
563;DHT22;266;49.514;8.294;2023-08-17T16:38:31;30.60;99.90
563;DHT22;266;49.514;8.294;2023-08-17T16:40:59;30.20;99.90
563;DHT22;266;49.514;8.294;2023-08-17T16:43:29;30.20;99.90
563;DHT22;266;49.514;8.294;2023-08-17T16:45:57;30.10;99.90